sensor_id;sensor_type;location;lat;lon;timestamp;pressure;altitude;pressure_sealevel;temperature;humidity
48555;BME280;34336;48.270;16.716;2022-07-23T00:00:19;74727.31;;;18.16;56.37
48555;BME280;34336;48.270;16.716;2022-07-23T00:02:46;74731.16;;;18.16;56.42
48555;BME280;34336;48.270;16.716;2022-07-23T00:05:13;74725.41;;;18.16;55.87
48555;BME280;34336;48.270;16.716;2022-07-23T00:07:40;74725.41;;;18.16;56.98
48555;BME280;34336;48.270;16.716;2022-07-23T00:10:08;74729.25;;;18.16;57.17
48555;BME280;34336;48.270;16.716;2022-07-23T00:12:35;74733.09;;;18.16;56.23
48555;BME280;34336;48.270;16.716;2022-07-23T00:15:16;74729.25;;;18.16;55.55
48555;BME280;34336;48.270;16.716;2022-07-23T00:17:43;74727.31;;;18.16;56.01
48555;BME280;34336;48.270;16.716;2022-07-23T00:20:10;74725.41;;;18.16;55.69
48555;BME280;34336;48.270;16.716;2022-07-23T00:22:48;74729.25;;;18.16;55.45
48555;BME280;34336;48.270;16.716;2022-07-23T00:25:15;74731.16;;;18.16;55.61
48555;BME280;34336;48.270;16.716;2022-07-23T00:28:00;74733.09;;;18.16;55.64
48555;BME280;34336;48.270;16.716;2022-07-23T00:30:28;74735.03;;;18.16;54.76
48555;BME280;34336;48.270;16.716;2022-07-23T00:32:58;74731.16;;;18.16;54.52
48555;BME280;34336;48.270;16.716;2022-07-23T00:35:28;74717.69;;;18.16;53.89
48555;BME280;34336;48.270;16.716;2022-07-23T00:37:56;74709.97;;;18.16;53.68
48555;BME280;34336;48.270;16.716;2022-07-23T00:40:23;74709.97;;;18.16;53.16
48555;BME280;34336;48.270;16.716;2022-07-23T00:42:50;74702.28;;;18.16;53.05
48555;BME280;34336;48.270;16.716;2022-07-23T00:45:17;74702.28;;;18.16;54.00
48555;BME280;34336;48.270;16.716;2022-07-23T00:47:44;74706.13;;;18.16;54.62
48555;BME280;34336;48.270;16.716;2022-07-23T00:50:12;74713.84;;;18.16;54.39
48555;BME280;34336;48.270;16.716;2022-07-23T00:52:40;74717.69;;;18.16;54.35
48555;BME280;34336;48.270;16.716;2022-07-23T00:55:08;74727.31;;;18.16;54.19
48555;BME280;34336;48.270;16.716;2022-07-23T00:57:36;74729.25;;;18.16;54.30
48555;BME280;34336;48.270;16.716;2022-07-23T01:00:08;74727.31;;;18.16;53.82
48555;BME280;34336;48.270;16.716;2022-07-23T01:02:37;74729.25;;;18.16;54.53
48555;BME280;34336;48.270;16.716;2022-07-23T01:05:04;74729.25;;;18.16;54.43
48555;BME280;34336;48.270;16.716;2022-07-23T01:07:32;74729.25;;;18.16;54.12
48555;BME280;34336;48.270;16.716;2022-07-23T01:10:00;74721.53;;;18.16;53.71
48555;BME280;34336;48.270;16.716;2022-07-23T01:12:27;74721.53;;;18.16;54.92
48555;BME280;34336;48.270;16.716;2022-07-23T01:14:59;74715.75;;;18.16;55.54
48555;BME280;34336;48.270;16.716;2022-07-23T01:17:28;74736.94;;;18.16;56.04
48555;BME280;34336;48.270;16.716;2022-07-23T01:19:55;74752.34;;;18.16;55.59
48555;BME280;34336;48.270;16.716;2022-07-23T01:22:22;74756.22;;;18.16;55.91
48555;BME280;34336;48.270;16.716;2022-07-23T01:24:51;74752.34;;;18.16;56.02
48555;BME280;34336;48.270;16.716;2022-07-23T01:27:22;74750.44;;;18.16;55.98
48555;BME280;34336;48.270;16.716;2022-07-23T01:29:55;74752.34;;;18.16;56.09
48555;BME280;34336;48.270;16.716;2022-07-23T01:32:23;74752.34;;;18.16;55.85
48555;BME280;34336;48.270;16.716;2022-07-23T01:34:50;74748.50;;;18.16;55.53
48555;BME280;34336;48.270;16.716;2022-07-23T01:37:18;74748.50;;;18.16;56.72
48555;BME280;34336;48.270;16.716;2022-07-23T01:39:46;74744.66;;;18.16;56.89
48555;BME280;34336;48.270;16.716;2022-07-23T01:42:13;74744.66;;;18.16;56.86
48555;BME280;34336;48.270;16.716;2022-07-23T01:44:40;74744.66;;;18.16;56.82
48555;BME280;34336;48.270;16.716;2022-07-23T01:47:16;74744.66;;;18.16;56.60
48555;BME280;34336;48.270;16.716;2022-07-23T01:49:43;74758.13;;;18.16;55.87
48555;BME280;34336;48.270;16.716;2022-07-23T01:52:26;74750.44;;;18.16;54.53
48555;BME280;34336;48.270;16.716;2022-07-23T01:54:53;74760.06;;;18.16;54.53
48555;BME280;34336;48.270;16.716;2022-07-23T01:57:20;74773.53;;;18.16;54.51
48555;BME280;34336;48.270;16.716;2022-07-23T01:59:47;74779.31;;;18.16;54.55
48555;BME280;34336;48.270;16.716;2022-07-23T02:02:17;74787.03;;;18.16;54.84
48555;BME280;34336;48.270;16.716;2022-07-23T02:04:44;74777.41;;;18.16;54.14
48555;BME280;34336;48.270;16.716;2022-07-23T02:07:11;74775.47;;;18.16;54.31
48555;BME280;34336;48.270;16.716;2022-07-23T02:09:38;74767.75;;;18.16;54.26
48555;BME280;34336;48.270;16.716;2022-07-23T02:12:05;74754.28;;;18.16;54.21
48555;BME280;34336;48.270;16.716;2022-07-23T02:14:32;74744.66;;;18.16;54.00
48555;BME280;34336;48.270;16.716;2022-07-23T02:16:59;74758.13;;;18.16;54.13
48555;BME280;34336;48.270;16.716;2022-07-23T02:19:26;74748.50;;;18.16;54.19
48555;BME280;34336;48.270;16.716;2022-07-23T02:21:52;74752.34;;;18.16;54.00
48555;BME280;34336;48.270;16.716;2022-07-23T02:24:21;74744.66;;;18.16;53.79
48555;BME280;34336;48.270;16.716;2022-07-23T02:26:48;74744.66;;;18.16;54.05
48555;BME280;34336;48.270;16.716;2022-07-23T02:29:15;74742.72;;;18.16;53.59
48555;BME280;34336;48.270;16.716;2022-07-23T02:31:42;74723.47;;;18.16;53.03
48555;BME280;34336;48.270;16.716;2022-07-23T02:34:09;74713.84;;;18.16;52.77
48555;BME280;34336;48.270;16.716;2022-07-23T02:36:38;74702.28;;;18.16;52.76
48555;BME280;34336;48.270;16.716;2022-07-23T02:39:07;74700.34;;;18.16;52.90
48555;BME280;34336;48.270;16.716;2022-07-23T02:41:35;74690.72;;;18.16;52.05
48555;BME280;34336;48.270;16.716;2022-07-23T02:44:02;74675.31;;;18.16;52.00
48555;BME280;34336;48.270;16.716;2022-07-23T02:46:30;74671.47;;;18.16;52.04
48555;BME280;34336;48.270;16.716;2022-07-23T02:48:58;74667.63;;;18.16;51.91
48555;BME280;34336;48.270;16.716;2022-07-23T02:51:25;74671.47;;;18.16;52.53
48555;BME280;34336;48.270;16.716;2022-07-23T02:53:57;74671.47;;;18.16;52.87
48555;BME280;34336;48.270;16.716;2022-07-23T02:56:24;74673.41;;;18.16;53.01
48555;BME280;34336;48.270;16.716;2022-07-23T02:58:51;74671.47;;;18.16;54.12
48555;BME280;34336;48.270;16.716;2022-07-23T03:01:17;74679.16;;;18.16;54.39
48555;BME280;34336;48.270;16.716;2022-07-23T03:03:46;74683.03;;;18.16;54.63
48555;BME280;34336;48.270;16.716;2022-07-23T03:06:13;74683.03;;;18.16;54.41
48555;BME280;34336;48.270;16.716;2022-07-23T03:08:43;74679.16;;;18.16;53.90
48555;BME280;34336;48.270;16.716;2022-07-23T03:11:10;74669.53;;;18.16;54.40
48555;BME280;34336;48.270;16.716;2022-07-23T03:13:40;74663.75;;;18.16;55.16
48555;BME280;34336;48.270;16.716;2022-07-23T03:16:07;74656.06;;;18.16;55.26
48555;BME280;34336;48.270;16.716;2022-07-23T03:18:36;74652.22;;;18.16;55.58
48555;BME280;34336;48.270;16.716;2022-07-23T03:21:07;74652.22;;;18.16;55.48
48555;BME280;34336;48.270;16.716;2022-07-23T03:23:37;74656.06;;;18.16;55.44
48555;BME280;34336;48.270;16.716;2022-07-23T03:26:04;74648.34;;;18.16;56.13
48555;BME280;34336;48.270;16.716;2022-07-23T03:28:31;74677.25;;;18.16;55.92
48555;BME280;34336;48.270;16.716;2022-07-23T03:30:58;74690.72;;;18.16;55.85
48555;BME280;34336;48.270;16.716;2022-07-23T03:33:25;74725.41;;;18.16;55.60
48555;BME280;34336;48.270;16.716;2022-07-23T03:35:53;74748.50;;;18.16;55.58
48555;BME280;34336;48.270;16.716;2022-07-23T03:38:29;74736.94;;;18.16;56.18
48555;BME280;34336;48.270;16.716;2022-07-23T03:40:56;74725.41;;;18.16;55.91
48555;BME280;34336;48.270;16.716;2022-07-23T03:43:22;74723.47;;;18.16;55.72
48555;BME280;34336;48.270;16.716;2022-07-23T03:45:52;74725.41;;;18.16;56.00
48555;BME280;34336;48.270;16.716;2022-07-23T03:48:19;74736.94;;;18.16;55.90
48555;BME280;34336;48.270;16.716;2022-07-23T03:50:46;74754.28;;;18.16;56.04
48555;BME280;34336;48.270;16.716;2022-07-23T03:53:13;74746.56;;;18.16;55.56
48555;BME280;34336;48.270;16.716;2022-07-23T03:55:39;74742.72;;;18.16;55.79
48555;BME280;34336;48.270;16.716;2022-07-23T03:58:06;74748.50;;;18.16;56.19
48555;BME280;34336;48.270;16.716;2022-07-23T04:00:33;74740.81;;;18.16;56.45
48555;BME280;34336;48.270;16.716;2022-07-23T04:03:01;74740.81;;;18.16;56.73
48555;BME280;34336;48.270;16.716;2022-07-23T04:05:28;74744.66;;;18.16;56.74
48555;BME280;34336;48.270;16.716;2022-07-23T04:08:04;74733.09;;;18.16;56.82
48555;BME280;34336;48.270;16.716;2022-07-23T04:10:32;74725.41;;;18.16;56.52
48555;BME280;34336;48.270;16.716;2022-07-23T04:12:59;74733.09;;;18.16;56.34
48555;BME280;34336;48.270;16.716;2022-07-23T04:15:25;74729.25;;;18.16;56.28
48555;BME280;34336;48.270;16.716;2022-07-23T04:17:52;74729.25;;;18.16;56.43
48555;BME280;34336;48.270;16.716;2022-07-23T04:20:21;74744.66;;;18.16;58.35
48555;BME280;34336;48.270;16.716;2022-07-23T04:22:54;74762.00;;;18.16;58.59
48555;BME280;34336;48.270;16.716;2022-07-23T04:25:22;74752.34;;;18.16;57.72
48555;BME280;34336;48.270;16.716;2022-07-23T04:27:49;74736.94;;;18.16;57.49
48555;BME280;34336;48.270;16.716;2022-07-23T04:30:16;74719.63;;;18.16;57.06
48555;BME280;34336;48.270;16.716;2022-07-23T04:32:43;74698.44;;;18.16;56.90
48555;BME280;34336;48.270;16.716;2022-07-23T04:35:19;74667.63;;;18.16;56.27
48555;BME280;34336;48.270;16.716;2022-07-23T04:37:47;74629.09;;;18.16;55.58
48555;BME280;34336;48.270;16.716;2022-07-23T04:40:15;74571.31;;;18.16;54.62
48555;BME280;34336;48.270;16.716;2022-07-23T04:42:42;74473.09;;;18.16;53.34
48555;BME280;34336;48.270;16.716;2022-07-23T04:45:09;74394.13;;;18.16;51.26
48555;BME280;34336;48.270;16.716;2022-07-23T04:47:39;74297.84;;;18.16;50.01
48555;BME280;34336;48.270;16.716;2022-07-23T04:50:11;74195.78;;;18.16;48.40
48555;BME280;34336;48.270;16.716;2022-07-23T04:52:39;74047.50;;;18.16;46.13
48555;BME280;34336;48.270;16.716;2022-07-23T04:55:07;73843.41;;;18.16;43.17
48555;BME280;34336;48.270;16.716;2022-07-23T04:57:34;73764.47;;;18.16;41.30
48555;BME280;34336;48.270;16.716;2022-07-23T05:00:03;73606.56;;;18.16;38.28
48555;BME280;34336;48.270;16.716;2022-07-23T05:02:31;73415.97;;;18.16;36.45
48555;BME280;34336;48.270;16.716;2022-07-23T05:04:57;73377.47;;;18.16;36.72
48555;BME280;34336;48.270;16.716;2022-07-23T05:07:27;73294.69;;;18.16;34.58
48555;BME280;34336;48.270;16.716;2022-07-23T05:09:54;73146.44;;;18.16;33.84
48555;BME280;34336;48.270;16.716;2022-07-23T05:12:21;73161.84;;;18.16;33.27
48555;BME280;34336;48.270;16.716;2022-07-23T05:14:48;73273.50;;;18.16;34.40
48555;BME280;34336;48.270;16.716;2022-07-23T05:17:15;73238.84;;;18.16;34.05
48555;BME280;34336;48.270;16.716;2022-07-23T05:19:42;73346.66;;;18.16;34.68
48555;BME280;34336;48.270;16.716;2022-07-23T05:22:09;73123.34;;;18.16;33.03
48555;BME280;34336;48.270;16.716;2022-07-23T05:24:35;73027.09;;;18.16;31.84
48555;BME280;34336;48.270;16.716;2022-07-23T05:27:03;73261.97;;;18.16;32.66
48555;BME280;34336;48.270;16.716;2022-07-23T05:29:31;73421.75;;;18.16;35.38
48555;BME280;34336;48.270;16.716;2022-07-23T05:31:57;73489.13;;;18.16;35.82
48555;BME280;34336;48.270;16.716;2022-07-23T05:34:24;73288.91;;;18.16;33.77
48555;BME280;34336;48.270;16.716;2022-07-23T05:36:51;73057.91;;;18.16;30.95
48555;BME280;34336;48.270;16.716;2022-07-23T05:39:19;72811.50;;;18.16;29.32
48555;BME280;34336;48.270;16.716;2022-07-23T05:41:46;72642.09;;;18.16;27.34
48555;BME280;34336;48.270;16.716;2022-07-23T05:44:13;72896.19;;;18.16;29.55
48555;BME280;34336;48.270;16.716;2022-07-23T05:46:42;72767.22;;;18.16;28.42
48555;BME280;34336;48.270;16.716;2022-07-23T05:49:14;72726.81;;;18.16;28.46
48555;BME280;34336;48.270;16.716;2022-07-23T05:52:05;72680.59;;;18.16;27.08
48555;BME280;34336;48.270;16.716;2022-07-23T05:54:53;72561.25;;;18.16;26.17
48555;BME280;34336;48.270;16.716;2022-07-23T05:57:21;72466.97;;;18.16;25.99
48555;BME280;34336;48.270;16.716;2022-07-23T05:59:51;72468.88;;;18.16;25.31
48555;BME280;34336;48.270;16.716;2022-07-23T06:02:18;72555.50;;;18.16;26.17
48555;BME280;34336;48.270;16.716;2022-07-23T06:04:44;72773.00;;;18.16;27.53
48555;BME280;34336;48.270;16.716;2022-07-23T06:07:35;72925.06;;;18.16;28.85
48555;BME280;34336;48.270;16.716;2022-07-23T06:10:03;73038.66;;;18.16;29.43
48555;BME280;34336;48.270;16.716;2022-07-23T06:12:30;72919.28;;;18.16;28.61
48555;BME280;34336;48.270;16.716;2022-07-23T06:14:57;72590.13;;;18.16;26.69
48555;BME280;34336;48.270;16.716;2022-07-23T06:17:25;72542.03;;;18.16;26.76
48555;BME280;34336;48.270;16.716;2022-07-23T06:19:53;72632.47;;;18.16;27.15
48555;BME280;34336;48.270;16.716;2022-07-23T06:22:21;72940.47;;;18.16;28.82
48555;BME280;34336;48.270;16.716;2022-07-23T06:24:49;73177.25;;;18.16;30.96
48555;BME280;34336;48.270;16.716;2022-07-23T06:27:16;73023.25;;;18.16;30.25
48555;BME280;34336;48.270;16.716;2022-07-23T06:29:49;72736.44;;;18.16;27.42
48555;BME280;34336;48.270;16.716;2022-07-23T06:32:15;72948.16;;;18.16;29.37
48555;BME280;34336;48.270;16.716;2022-07-23T06:34:42;72977.03;;;18.16;29.00
48555;BME280;34336;48.270;16.716;2022-07-23T06:37:14;73298.53;;;18.16;31.06
48555;BME280;34336;48.270;16.716;2022-07-23T06:39:41;73242.69;;;18.16;30.87
48555;BME280;34336;48.270;16.716;2022-07-23T06:42:09;73206.13;;;18.16;30.97
48555;BME280;34336;48.270;16.716;2022-07-23T06:44:43;73340.88;;;18.16;31.40
48555;BME280;34336;48.270;16.716;2022-07-23T06:47:10;73131.03;;;18.16;30.13
48555;BME280;34336;48.270;16.716;2022-07-23T06:49:37;73198.44;;;18.16;30.84
48555;BME280;34336;48.270;16.716;2022-07-23T06:52:08;73061.75;;;18.16;29.30
48555;BME280;34336;48.270;16.716;2022-07-23T06:54:35;73065.59;;;18.16;28.97
48555;BME280;34336;48.270;16.716;2022-07-23T06:57:02;73346.66;;;18.16;30.74
48555;BME280;34336;48.270;16.716;2022-07-23T06:59:29;73477.59;;;18.16;32.84
48555;BME280;34336;48.270;16.716;2022-07-23T07:01:56;73466.03;;;18.16;32.83
48555;BME280;34336;48.270;16.716;2022-07-23T07:04:24;73364.00;;;18.16;31.84
48555;BME280;34336;48.270;16.716;2022-07-23T07:06:51;73458.31;;;18.16;32.79
48555;BME280;34336;48.270;16.716;2022-07-23T07:09:18;73435.22;;;18.16;32.74
48555;BME280;34336;48.270;16.716;2022-07-23T07:11:44;73441.00;;;18.16;33.03
48555;BME280;34336;48.270;16.716;2022-07-23T07:14:11;73531.50;;;18.16;33.83
48555;BME280;34336;48.270;16.716;2022-07-23T07:16:41;73543.03;;;18.16;34.17
48555;BME280;34336;48.270;16.716;2022-07-23T07:19:08;73766.38;;;18.16;36.42
48555;BME280;34336;48.270;16.716;2022-07-23T07:21:35;73804.91;;;18.16;36.92
48555;BME280;34336;48.270;16.716;2022-07-23T07:24:02;73833.78;;;18.16;37.28
48555;BME280;34336;48.270;16.716;2022-07-23T07:26:29;73839.56;;;18.16;37.08
48555;BME280;34336;48.270;16.716;2022-07-23T07:28:57;73801.03;;;18.16;37.23
48555;BME280;34336;48.270;16.716;2022-07-23T07:31:24;73770.25;;;18.16;37.22
48555;BME280;34336;48.270;16.716;2022-07-23T07:33:51;73804.91;;;18.16;37.81
48555;BME280;34336;48.270;16.716;2022-07-23T07:36:19;73673.97;;;18.16;36.79
48555;BME280;34336;48.270;16.716;2022-07-23T07:38:46;73439.06;;;18.16;34.31
48555;BME280;34336;48.270;16.716;2022-07-23T07:41:15;73256.19;;;18.16;33.04
48555;BME280;34336;48.270;16.716;2022-07-23T07:43:42;73069.44;;;18.16;31.49
48555;BME280;34336;48.270;16.716;2022-07-23T07:46:11;73059.81;;;18.16;31.13
48555;BME280;34336;48.270;16.716;2022-07-23T07:48:38;72957.78;;;18.16;31.24
48555;BME280;34336;48.270;16.716;2022-07-23T07:51:05;72942.41;;;18.16;30.59
48555;BME280;34336;48.270;16.716;2022-07-23T07:53:32;73188.81;;;18.16;32.66
48555;BME280;34336;48.270;16.716;2022-07-23T07:55:59;73188.81;;;18.16;32.34
48555;BME280;34336;48.270;16.716;2022-07-23T07:58:26;73127.19;;;18.16;30.73
48555;BME280;34336;48.270;16.716;2022-07-23T08:00:56;73148.38;;;18.16;30.94
48555;BME280;34336;48.270;16.716;2022-07-23T08:03:24;73179.19;;;18.16;30.73
48555;BME280;34336;48.270;16.716;2022-07-23T08:05:50;73156.06;;;18.16;30.94
48555;BME280;34336;48.270;16.716;2022-07-23T08:08:17;73275.44;;;18.16;31.87
48555;BME280;34336;48.270;16.716;2022-07-23T08:10:47;73211.91;;;18.16;31.60
48555;BME280;34336;48.270;16.716;2022-07-23T08:13:16;73167.63;;;18.16;31.27
48555;BME280;34336;48.270;16.716;2022-07-23T08:15:44;73136.81;;;18.16;31.20
48555;BME280;34336;48.270;16.716;2022-07-23T08:18:12;73338.97;;;18.16;32.44
48555;BME280;34336;48.270;16.716;2022-07-23T08:20:39;73365.91;;;18.16;32.68
48555;BME280;34336;48.270;16.716;2022-07-23T08:23:07;73350.50;;;18.16;32.88
48555;BME280;34336;48.270;16.716;2022-07-23T08:25:40;73414.03;;;18.16;33.26
48555;BME280;34336;48.270;16.716;2022-07-23T08:28:09;73435.22;;;18.16;33.53
48555;BME280;34336;48.270;16.716;2022-07-23T08:30:39;73365.91;;;18.16;33.08
48555;BME280;34336;48.270;16.716;2022-07-23T08:33:09;73292.75;;;18.16;32.93
48555;BME280;34336;48.270;16.716;2022-07-23T08:36:01;73242.69;;;18.16;32.07
48555;BME280;34336;48.270;16.716;2022-07-23T08:38:31;73208.06;;;18.16;31.60
48555;BME280;34336;48.270;16.716;2022-07-23T08:40:59;73123.34;;;18.16;30.64
48555;BME280;34336;48.270;16.716;2022-07-23T08:43:35;73169.56;;;18.16;30.94
48555;BME280;34336;48.270;16.716;2022-07-23T08:46:07;73285.06;;;18.16;31.36
48555;BME280;34336;48.270;16.716;2022-07-23T08:48:35;73310.09;;;18.16;31.97
48555;BME280;34336;48.270;16.716;2022-07-23T08:51:06;73300.47;;;18.16;32.03
48555;BME280;34336;48.270;16.716;2022-07-23T08:53:34;73340.88;;;18.16;32.34
48555;BME280;34336;48.270;16.716;2022-07-23T08:56:06;73335.13;;;18.16;32.51
48555;BME280;34336;48.270;16.716;2022-07-23T08:58:35;73377.47;;;18.16;32.77
48555;BME280;34336;48.270;16.716;2022-07-23T09:01:03;73352.44;;;18.16;32.20
48555;BME280;34336;48.270;16.716;2022-07-23T09:03:33;73412.13;;;18.16;32.10
48555;BME280;34336;48.270;16.716;2022-07-23T09:06:01;73404.41;;;18.16;32.55
48555;BME280;34336;48.270;16.716;2022-07-23T09:08:39;73421.75;;;18.16;32.45
48555;BME280;34336;48.270;16.716;2022-07-23T09:11:11;73396.72;;;18.16;32.39
48555;BME280;34336;48.270;16.716;2022-07-23T09:13:41;73250.41;;;18.16;31.95
48555;BME280;34336;48.270;16.716;2022-07-23T09:16:43;73231.16;;;18.16;31.45
48555;BME280;34336;48.270;16.716;2022-07-23T09:19:27;73238.84;;;18.16;31.33
48555;BME280;34336;48.270;16.716;2022-07-23T09:21:56;73360.13;;;18.16;32.13
48555;BME280;34336;48.270;16.716;2022-07-23T09:25:10;73319.72;;;18.16;32.34
48555;BME280;34336;48.270;16.716;2022-07-23T09:28:04;73169.56;;;18.16;30.76
48555;BME280;34336;48.270;16.716;2022-07-23T09:30:34;73115.66;;;18.16;30.83
48555;BME280;34336;48.270;16.716;2022-07-23T09:33:13;73061.75;;;18.16;31.11
48555;BME280;34336;48.270;16.716;2022-07-23T09:35:51;73027.09;;;18.16;29.86
48555;BME280;34336;48.270;16.716;2022-07-23T09:38:21;73004.00;;;18.16;30.33
48555;BME280;34336;48.270;16.716;2022-07-23T09:41:08;72961.66;;;18.16;29.48
48555;BME280;34336;48.270;16.716;2022-07-23T09:43:36;72996.28;;;18.16;29.78
48555;BME280;34336;48.270;16.716;2022-07-23T09:48:47;73138.75;;;18.16;30.23
48555;BME280;34336;48.270;16.716;2022-07-23T09:51:14;73163.78;;;18.16;30.41
48555;BME280;34336;48.270;16.716;2022-07-23T09:53:46;73123.34;;;18.16;30.13
48555;BME280;34336;48.270;16.716;2022-07-23T09:56:14;73100.25;;;18.16;30.20
48555;BME280;34336;48.270;16.716;2022-07-23T09:58:44;73167.63;;;18.16;31.01
48555;BME280;34336;48.270;16.716;2022-07-23T10:01:16;73098.31;;;18.16;30.55
48555;BME280;34336;48.270;16.716;2022-07-23T10:03:43;73077.16;;;18.16;31.33
48555;BME280;34336;48.270;16.716;2022-07-23T10:06:39;73073.28;;;18.16;30.92
48555;BME280;34336;48.270;16.716;2022-07-23T10:09:27;73017.47;;;18.16;31.28
48555;BME280;34336;48.270;16.716;2022-07-23T10:12:22;72942.41;;;18.16;30.48
48555;BME280;34336;48.270;16.716;2022-07-23T10:15:10;72911.59;;;18.16;29.75
48555;BME280;34336;48.270;16.716;2022-07-23T10:17:37;73050.19;;;18.16;31.79
48555;BME280;34336;48.270;16.716;2022-07-23T10:20:04;73038.66;;;18.16;30.67
48555;BME280;34336;48.270;16.716;2022-07-23T10:22:37;73104.09;;;18.16;30.52
48555;BME280;34336;48.270;16.716;2022-07-23T10:31:04;73100.25;;;18.16;30.58
48555;BME280;34336;48.270;16.716;2022-07-23T10:36:25;73084.84;;;18.16;31.31
48555;BME280;34336;48.270;16.716;2022-07-23T10:39:24;73021.31;;;18.16;30.73
48555;BME280;34336;48.270;16.716;2022-07-23T10:42:11;73023.25;;;18.16;29.94
48555;BME280;34336;48.270;16.716;2022-07-23T10:44:43;73038.66;;;18.16;29.94
48555;BME280;34336;48.270;16.716;2022-07-23T10:47:11;73021.31;;;18.16;29.70
48555;BME280;34336;48.270;16.716;2022-07-23T10:49:40;72967.41;;;18.16;29.01
48555;BME280;34336;48.270;16.716;2022-07-23T10:54:41;72938.53;;;18.16;28.68
48555;BME280;34336;48.270;16.716;2022-07-23T10:57:10;73057.91;;;18.16;29.75
48555;BME280;34336;48.270;16.716;2022-07-23T11:02:36;73054.03;;;18.16;29.38
48555;BME280;34336;48.270;16.716;2022-07-23T11:05:05;73100.25;;;18.16;29.67
48555;BME280;34336;48.270;16.716;2022-07-23T11:07:34;73131.03;;;18.16;30.01
48555;BME280;34336;48.270;16.716;2022-07-23T11:10:01;73063.66;;;18.16;29.42
48555;BME280;34336;48.270;16.716;2022-07-23T11:22:56;72992.44;;;18.16;30.41
48555;BME280;34336;48.270;16.716;2022-07-23T11:28:09;72980.91;;;18.16;30.41
48555;BME280;34336;48.270;16.716;2022-07-23T11:30:42;72984.75;;;18.16;30.15
48555;BME280;34336;48.270;16.716;2022-07-23T11:35:41;72988.59;;;18.16;29.91
48555;BME280;34336;48.270;16.716;2022-07-23T11:38:19;72984.75;;;18.16;29.14
48555;BME280;34336;48.270;16.716;2022-07-23T11:40:49;72921.22;;;18.16;29.44
48555;BME280;34336;48.270;16.716;2022-07-23T11:43:17;73034.78;;;18.16;29.85
48555;BME280;34336;48.270;16.716;2022-07-23T11:45:46;72946.25;;;18.16;30.46
48555;BME280;34336;48.270;16.716;2022-07-23T11:48:24;72953.94;;;18.16;30.00
48555;BME280;34336;48.270;16.716;2022-07-23T11:50:52;72965.50;;;18.16;30.56
48555;BME280;34336;48.270;16.716;2022-07-23T11:53:24;72973.19;;;18.16;30.20
48555;BME280;34336;48.270;16.716;2022-07-23T11:55:51;72963.56;;;18.16;29.49
48555;BME280;34336;48.270;16.716;2022-07-23T11:58:18;73054.03;;;18.16;30.63
48555;BME280;34336;48.270;16.716;2022-07-23T12:00:46;72982.81;;;18.16;30.22
48555;BME280;34336;48.270;16.716;2022-07-23T12:03:13;73044.41;;;18.16;30.33
48555;BME280;34336;48.270;16.716;2022-07-23T12:05:41;72946.25;;;18.16;30.46
48555;BME280;34336;48.270;16.716;2022-07-23T12:08:09;72930.84;;;18.16;30.99
48555;BME280;34336;48.270;16.716;2022-07-23T12:10:42;72911.59;;;18.16;30.89
48555;BME280;34336;48.270;16.716;2022-07-23T12:13:20;72911.59;;;18.16;30.92
48555;BME280;34336;48.270;16.716;2022-07-23T12:15:51;72900.03;;;18.16;30.89
48555;BME280;34336;48.270;16.716;2022-07-23T12:18:19;72857.69;;;18.16;30.61
48555;BME280;34336;48.270;16.716;2022-07-23T12:20:54;72901.97;;;18.16;31.18
48555;BME280;34336;48.270;16.716;2022-07-23T12:23:23;72996.28;;;18.16;31.65
48555;BME280;34336;48.270;16.716;2022-07-23T12:25:52;72980.91;;;18.16;31.70
48555;BME280;34336;48.270;16.716;2022-07-23T12:28:27;72969.34;;;18.16;31.54
48555;BME280;34336;48.270;16.716;2022-07-23T12:30:56;73007.84;;;18.16;31.42
48555;BME280;34336;48.270;16.716;2022-07-23T12:33:33;73067.53;;;18.16;31.84
48555;BME280;34336;48.270;16.716;2022-07-23T12:36:03;73005.91;;;18.16;32.04
48555;BME280;34336;48.270;16.716;2022-07-23T12:38:42;73069.44;;;18.16;32.33
48555;BME280;34336;48.270;16.716;2022-07-23T12:41:12;73107.94;;;18.16;32.71
48555;BME280;34336;48.270;16.716;2022-07-23T12:43:41;73115.66;;;18.16;32.97
48555;BME280;34336;48.270;16.716;2022-07-23T12:46:17;73129.13;;;18.16;33.08
48555;BME280;34336;48.270;16.716;2022-07-23T12:51:29;73158.00;;;18.16;33.79
48555;BME280;34336;48.270;16.716;2022-07-23T12:53:59;73171.47;;;18.16;33.05
48555;BME280;34336;48.270;16.716;2022-07-23T12:56:37;73223.44;;;18.16;33.86
48555;BME280;34336;48.270;16.716;2022-07-23T12:59:10;73233.06;;;18.16;33.91
48555;BME280;34336;48.270;16.716;2022-07-23T13:01:39;73213.81;;;18.16;33.95
48555;BME280;34336;48.270;16.716;2022-07-23T13:04:11;73242.69;;;18.16;33.92
48555;BME280;34336;48.270;16.716;2022-07-23T13:06:45;73261.97;;;18.16;34.55
48555;BME280;34336;48.270;16.716;2022-07-23T13:09:15;73265.81;;;18.16;34.40
48555;BME280;34336;48.270;16.716;2022-07-23T13:11:43;73248.47;;;18.16;34.57
48555;BME280;34336;48.270;16.716;2022-07-23T13:14:14;73288.91;;;18.16;34.21
48555;BME280;34336;48.270;16.716;2022-07-23T13:16:42;73275.44;;;18.16;33.98
48555;BME280;34336;48.270;16.716;2022-07-23T13:19:10;73319.72;;;18.16;33.63
48555;BME280;34336;48.270;16.716;2022-07-23T13:21:39;73346.66;;;18.16;34.49
48555;BME280;34336;48.270;16.716;2022-07-23T13:24:10;73408.28;;;18.16;34.83
48555;BME280;34336;48.270;16.716;2022-07-23T13:26:39;73427.53;;;18.16;35.09
48555;BME280;34336;48.270;16.716;2022-07-23T13:29:12;73458.31;;;18.16;35.43
48555;BME280;34336;48.270;16.716;2022-07-23T13:31:50;73489.13;;;18.16;35.15
48555;BME280;34336;48.270;16.716;2022-07-23T13:34:20;73516.09;;;18.16;35.71
48555;BME280;34336;48.270;16.716;2022-07-23T13:36:52;73558.44;;;18.16;36.35
48555;BME280;34336;48.270;16.716;2022-07-23T13:39:20;73639.31;;;18.16;36.95